Time;durP1;ratioP1;P1;durP2;ratioP2;P2;SDS_P1;SDS_P2;PMS_P1;PMS_P2;Temp;Humidity;BMP_temperature;BMP_pressure;BME280_temperature;BME280_humidity;BME280_pressure;Samples;Min_cycle;Max_cycle;Signal;HPM_P1;HPM_P2
2020/12/23 00:00:54;;;;;;;1.20;1.10;;;14.60;98.00;;;;;;5032603;28;20547;-68
2020/12/23 00:03:21;;;;;;;1.20;1.00;;;14.60;98.00;;;;;;5034376;28;20470;-68
2020/12/23 00:05:48;;;;;;;1.20;0.90;;;14.60;98.00;;;;;;5032346;28;20458;-68
2020/12/23 00:08:14;;;;;;;1.20;1.00;;;14.60;98.00;;;;;;5034308;28;20530;-69
2020/12/23 00:10:41;;;;;;;1.20;1.10;;;14.60;98.00;;;;;;5034363;28;20510;-69
2020/12/23 00:13:08;;;;;;;1.20;1.00;;;14.70;98.00;;;;;;5032552;28;20522;-69
2020/12/23 00:15:35;;;;;;;1.20;1.07;;;14.70;98.00;;;;;;5034197;28;20463;-69
2020/12/23 00:18:02;;;;;;;1.20;1.00;;;14.80;98.00;;;;;;5031938;28;20489;-68
2020/12/23 00:20:30;;;;;;;1.20;1.00;;;14.80;98.00;;;;;;5033945;28;20462;-70
2020/12/23 00:22:57;;;;;;;1.20;1.00;;;14.80;98.00;;;;;;5030733;28;20485;-68
2020/12/23 00:25:26;;;;;;;1.20;1.10;;;14.80;98.00;;;;;;5034054;28;20462;-68
2020/12/23 00:27:54;;;;;;;1.20;1.00;;;14.80;98.00;;;;;;5031881;28;20472;-69
2020/12/23 00:30:22;;;;;;;1.70;1.10;;;14.80;98.00;;;;;;5033758;28;20466;-68
2020/12/23 00:32:49;;;;;;;1.20;1.00;;;14.80;98.00;;;;;;5031952;28;21193;-69
2020/12/23 00:35:16;;;;;;;1.20;1.00;;;14.80;98.00;;;;;;5033888;28;20499;-68
2020/12/23 00:37:43;;;;;;;1.20;1.00;;;14.80;98.00;;;;;;5030421;28;20470;-68
2020/12/23 00:40:09;;;;;;;1.20;1.00;;;14.90;98.00;;;;;;5033861;28;20457;-68
2020/12/23 00:42:36;;;;;;;1.40;1.10;;;14.90;98.00;;;;;;5030205;28;20489;-69
2020/12/23 00:45:06;;;;;;;1.20;1.20;;;14.90;98.00;;;;;;5033972;28;20948;-68
2020/12/23 00:47:33;;;;;;;1.20;1.00;;;14.90;98.00;;;;;;5031611;28;20500;-68
2020/12/23 00:50:00;;;;;;;1.20;0.90;;;14.90;98.00;;;;;;5033623;28;20563;-68
2020/12/23 00:52:26;;;;;;;1.20;1.10;;;14.90;98.00;;;;;;5031557;28;20459;-69
2020/12/23 00:54:53;;;;;;;1.20;1.00;;;14.90;98.00;;;;;;5032855;28;20771;-68
2020/12/23 00:57:19;;;;;;;1.20;1.00;;;14.90;98.00;;;;;;5031600;28;20471;-69
2020/12/23 00:59:46;;;;;;;1.20;1.00;;;14.90;98.00;;;;;;5033506;28;20835;-67
2020/12/23 01:02:13;;;;;;;1.20;1.00;;;14.90;98.00;;;;;;5031499;28;20490;-69
2020/12/23 01:04:40;;;;;;;1.30;1.00;;;14.90;98.00;;;;;;5033410;28;20962;-68
2020/12/23 01:07:06;;;;;;;1.20;1.10;;;14.90;98.00;;;;;;5031217;28;20462;-68
2020/12/23 01:09:33;;;;;;;1.60;1.50;;;14.90;98.00;;;;;;5033202;28;20471;-68
2020/12/23 01:12:00;;;;;;;1.20;1.00;;;14.90;98.00;;;;;;5031000;28;20488;-69
2020/12/23 01:14:26;;;;;;;1.20;1.07;;;14.90;98.00;;;;;;5033125;28;20467;-68
2020/12/23 01:16:53;;;;;;;1.20;1.00;;;14.90;98.00;;;;;;5030875;28;20469;-69
2020/12/23 01:19:20;;;;;;;1.30;1.00;;;14.90;98.00;;;;;;5032986;28;20469;-68
2020/12/23 01:21:47;;;;;;;1.20;1.00;;;14.90;98.00;;;;;;5030694;28;21011;-68
2020/12/23 01:24:13;;;;;;;2.40;1.20;;;14.90;98.00;;;;;;5032661;28;20475;-68
2020/12/23 01:26:40;;;;;;;1.20;1.00;;;14.80;98.00;;;;;;5030926;28;20464;-68
2020/12/23 01:29:06;;;;;;;1.20;1.00;;;14.80;98.00;;;;;;5032848;28;20460;-68
2020/12/23 01:31:33;;;;;;;2.67;1.00;;;14.80;98.00;;;;;;5030576;28;20773;-67
2020/12/23 01:33:59;;;;;;;1.20;1.00;;;14.80;98.00;;;;;;5032868;28;20470;-68
2020/12/23 01:36:27;;;;;;;1.83;1.10;;;14.70;98.00;;;;;;5030623;28;20512;-68
2020/12/23 01:38:53;;;;;;;1.20;1.10;;;14.70;98.00;;;;;;5032579;28;20455;-68
2020/12/23 01:41:20;;;;;;;1.20;1.07;;;14.70;98.00;;;;;;5030286;28;20483;-67
2020/12/23 01:43:54;;;;;;;1.30;1.10;;;14.70;98.00;;;;;;5032688;28;20466;-68
2020/12/23 01:46:30;;;;;;;1.37;1.10;;;14.70;98.00;;;;;;5030031;28;20459;-67
2020/12/23 01:48:57;;;;;;;1.20;1.00;;;14.70;98.00;;;;;;5031981;28;20461;-67
2020/12/23 01:51:25;;;;;;;1.20;1.00;;;14.70;98.00;;;;;;5029726;28;20458;-67
2020/12/23 01:53:54;;;;;;;1.20;1.10;;;14.70;98.00;;;;;;5032300;28;20467;-68
2020/12/23 01:56:21;;;;;;;1.20;1.00;;;14.70;98.00;;;;;;5030213;28;20512;-69
2020/12/23 01:58:48;;;;;;;1.30;1.10;;;14.70;98.00;;;;;;5032393;28;20545;-68
2020/12/23 02:01:18;;;;;;;8.70;1.43;;;14.70;98.00;;;;;;5030114;28;20497;-69
2020/12/23 02:03:45;;;;;;;1.20;1.00;;;14.80;98.00;;;;;;5032444;28;20460;-68
2020/12/23 02:06:12;;;;;;;1.20;1.10;;;14.80;98.00;;;;;;5029242;28;20505;-68
2020/12/23 02:08:41;;;;;;;1.30;1.10;;;14.80;98.00;;;;;;5032200;28;20520;-69
2020/12/23 02:11:14;;;;;;;1.20;1.00;;;14.80;98.00;;;;;;5030122;28;20459;-68
2020/12/23 02:13:43;;;;;;;1.20;1.00;;;14.70;98.00;;;;;;5032054;28;20477;-67
2020/12/23 02:16:23;;;;;;;1.20;0.90;;;14.80;98.00;;;;;;5029710;28;20465;-68
2020/12/23 02:18:49;;;;;;;1.20;1.00;;;14.80;98.00;;;;;;5031948;28;20464;-68
2020/12/23 02:21:28;;;;;;;1.20;1.00;;;14.80;98.00;;;;;;5029597;28;20489;-68
2020/12/23 02:23:55;;;;;;;1.20;1.00;;;14.80;98.00;;;;;;5031641;28;20466;-67
2020/12/23 02:26:30;;;;;;;1.20;1.00;;;14.80;98.00;;;;;;5029500;28;20491;-68
2020/12/23 02:28:56;;;;;;;1.20;1.00;;;14.80;98.00;;;;;;5031816;28;20499;-69
2020/12/23 02:31:23;;;;;;;1.20;1.00;;;14.70;98.00;;;;;;5029530;28;20457;-68
2020/12/23 02:33:50;;;;;;;1.20;1.00;;;14.80;98.00;;;;;;5031825;28;20464;-69
2020/12/23 02:36:22;;;;;;;1.20;1.10;;;14.80;98.00;;;;;;5028015;28;20500;-68
2020/12/23 02:38:49;;;;;;;1.20;1.10;;;14.80;98.00;;;;;;5031258;28;20463;-68
2020/12/23 02:41:17;;;;;;;1.20;1.10;;;14.80;98.00;;;;;;5029159;28;20547;-68
2020/12/23 02:43:44;;;;;;;1.20;1.03;;;14.80;98.00;;;;;;5031783;28;20460;-68
2020/12/23 02:46:11;;;;;;;1.20;1.00;;;14.90;98.00;;;;;;5029697;28;20581;-66
2020/12/23 02:48:37;;;;;;;1.20;1.03;;;14.90;98.00;;;;;;5031634;28;20525;-67
2020/12/23 02:51:05;;;;;;;1.60;1.20;;;14.90;98.00;;;;;;5029546;28;20462;-68
2020/12/23 02:53:32;;;;;;;1.20;1.00;;;14.90;98.00;;;;;;5031610;28;20469;-68
2020/12/23 02:56:03;;;;;;;1.20;1.00;;;14.90;98.00;;;;;;5031624;28;20519;-67
2020/12/23 02:58:30;;;;;;;1.20;1.10;;;14.90;98.00;;;;;;5031281;28;20457;-68
2020/12/23 03:00:56;;;;;;;1.20;1.10;;;14.90;98.00;;;;;;5031385;28;21012;-68
2020/12/23 03:03:23;;;;;;;1.20;1.00;;;14.80;98.00;;;;;;5029752;28;20770;-69
2020/12/23 03:05:49;;;;;;;1.30;1.00;;;14.80;98.00;;;;;;5031384;28;20483;-68
2020/12/23 03:08:16;;;;;;;1.20;1.00;;;14.80;98.00;;;;;;5028878;28;20459;-68
2020/12/23 03:10:43;;;;;;;1.20;1.00;;;14.80;98.00;;;;;;5031525;28;20542;-68
2020/12/23 03:13:09;;;;;;;1.30;1.03;;;14.80;98.00;;;;;;5029113;28;20945;-68
2020/12/23 03:15:36;;;;;;;1.20;1.00;;;14.70;98.00;;;;;;5031214;28;20513;-68
2020/12/23 03:18:03;;;;;;;1.37;1.00;;;14.70;98.00;;;;;;5030941;28;20477;-67
2020/12/23 03:20:33;;;;;;;1.20;1.00;;;14.80;98.00;;;;;;5035598;28;20471;-68
2020/12/23 03:22:59;;;;;;;1.20;1.00;;;14.80;98.00;;;;;;5033207;28;20569;-68
2020/12/23 03:25:26;;;;;;;1.47;1.10;;;14.80;98.00;;;;;;5035460;28;20465;-68
2020/12/23 03:27:52;;;;;;;1.20;1.10;;;14.80;98.00;;;;;;5032981;28;20854;-66
2020/12/23 03:30:19;;;;;;;1.20;1.00;;;14.80;98.00;;;;;;5035150;28;20454;-68
2020/12/23 03:32:46;;;;;;;1.20;1.10;;;14.80;98.00;;;;;;5032929;28;20454;-68
2020/12/23 03:35:13;;;;;;;1.20;1.00;;;14.80;98.00;;;;;;5034978;28;20461;-68
2020/12/23 03:37:39;;;;;;;1.20;1.00;;;14.80;98.00;;;;;;5032821;28;20465;-69
2020/12/23 03:40:09;;;;;;;1.20;1.00;;;14.80;98.00;;;;;;5034891;28;20897;-69
2020/12/23 03:42:35;;;;;;;1.20;1.00;;;14.80;98.00;;;;;;5032838;28;20958;-67
2020/12/23 03:45:02;;;;;;;1.20;1.00;;;14.80;98.00;;;;;;5035080;28;20816;-69
2020/12/23 03:47:29;;;;;;;1.20;0.90;;;14.80;98.00;;;;;;5032838;28;20930;-69
2020/12/23 03:49:56;;;;;;;1.20;1.10;;;14.80;98.00;;;;;;5035081;28;20492;-67
2020/12/23 03:52:23;;;;;;;1.37;1.20;;;14.80;98.00;;;;;;5031633;28;20452;-68
2020/12/23 03:54:52;;;;;;;1.37;1.07;;;14.80;98.00;;;;;;5035013;28;20470;-68
2020/12/23 03:57:19;;;;;;;1.20;1.00;;;14.80;98.00;;;;;;5032398;28;20772;-68
2020/12/23 03:59:47;;;;;;;1.20;1.00;;;14.80;98.00;;;;;;5034746;28;20463;-68
2020/12/23 04:02:13;;;;;;;1.77;1.67;;;14.80;98.00;;;;;;5032587;28;20490;-68
2020/12/23 04:04:40;;;;;;;1.20;1.00;;;14.80;98.00;;;;;;5034818;28;20466;-68
2020/12/23 04:07:07;;;;;;;1.70;1.00;;;14.90;98.00;;;;;;5032656;28;20986;-68
2020/12/23 04:09:34;;;;;;;1.20;1.00;;;14.80;98.00;;;;;;5034382;28;20469;-68
2020/12/23 04:12:00;;;;;;;1.20;1.00;;;14.90;98.00;;;;;;5032365;28;20462;-68
2020/12/23 04:14:29;;;;;;;1.20;1.00;;;14.90;98.00;;;;;;5034494;28;20494;-70
2020/12/23 04:16:56;;;;;;;1.20;1.00;;;14.90;98.00;;;;;;5032400;28;20453;-69
2020/12/23 04:19:23;;;;;;;1.20;1.00;;;14.90;98.00;;;;;;5034283;28;20458;-69
2020/12/23 04:21:50;;;;;;;1.20;1.10;;;14.90;98.00;;;;;;5032029;28;20494;-67
2020/12/23 04:24:18;;;;;;;1.20;1.10;;;14.90;98.00;;;;;;5033959;28;20501;-68
2020/12/23 04:26:45;;;;;;;1.20;1.00;;;15.00;98.00;;;;;;5030809;28;20466;-68
2020/12/23 04:29:15;;;;;;;1.20;1.00;;;14.90;98.00;;;;;;5032973;28;20467;-68
2020/12/23 04:31:41;;;;;;;1.30;1.00;;;14.90;98.00;;;;;;5031863;28;20467;-69
2020/12/23 04:34:08;;;;;;;1.93;1.10;;;14.90;98.00;;;;;;5034050;28;20462;-68
2020/12/23 04:36:34;;;;;;;1.20;1.10;;;14.80;98.00;;;;;;5031753;28;20478;-67
2020/12/23 04:39:01;;;;;;;1.20;1.00;;;14.60;98.00;;;;;;5033756;28;20475;-69
2020/12/23 04:41:28;;;;;;;1.20;1.00;;;14.50;98.00;;;;;;5031653;28;20485;-68
2020/12/23 04:43:55;;;;;;;1.20;1.00;;;14.50;98.00;;;;;;5033689;28;20453;-68
2020/12/23 04:46:24;;;;;;;1.20;1.00;;;14.40;98.00;;;;;;5031599;28;20458;-68
2020/12/23 04:48:56;;;;;;;1.20;1.10;;;14.30;98.00;;;;;;5033703;28;20467;-68
2020/12/23 04:51:29;;;;;;;1.20;1.10;;;14.30;98.00;;;;;;5031525;28;20467;-68
2020/12/23 04:53:56;;;;;;;1.20;1.00;;;14.30;98.00;;;;;;5033613;28;20458;-68
2020/12/23 04:56:25;;;;;;;1.20;0.90;;;14.30;98.00;;;;;;5031413;28;20459;-69
2020/12/23 04:58:53;;;;;;;1.20;1.00;;;14.20;98.00;;;;;;5033466;28;20486;-68
2020/12/23 05:01:20;;;;;;;1.20;1.10;;;14.10;98.00;;;;;;5031157;28;20510;-69
2020/12/23 05:03:46;;;;;;;1.20;1.00;;;14.10;98.00;;;;;;5033859;28;20458;-69
2020/12/23 05:06:13;;;;;;;1.20;1.10;;;14.10;98.00;;;;;;5033160;28;20468;-68
2020/12/23 05:08:39;;;;;;;1.20;1.00;;;14.00;98.00;;;;;;5032150;28;20519;-68
2020/12/23 05:11:07;;;;;;;1.20;1.03;;;14.00;98.00;;;;;;5033693;28;20468;-69
2020/12/23 05:13:34;;;;;;;1.20;1.00;;;14.00;98.00;;;;;;5031265;28;20937;-69
2020/12/23 05:16:04;;;;;;;1.20;1.00;;;13.90;98.00;;;;;;5033245;28;20855;-68
2020/12/23 05:18:32;;;;;;;1.20;0.90;;;;;;;;;;5030149;28;20523;-68
2020/12/23 05:20:58;;;;;;;1.20;1.00;;;13.90;98.00;;;;;;5033046;28;20846;-68
2020/12/23 05:23:25;;;;;;;1.20;0.90;;;13.90;98.00;;;;;;5031019;28;20473;-68
2020/12/23 05:26:03;;;;;;;1.20;1.00;;;13.90;98.00;;;;;;5033049;28;20454;-68
2020/12/23 05:28:30;;;;;;;1.20;1.00;;;13.90;98.00;;;;;;5031118;28;20463;-68
2020/12/23 05:30:58;;;;;;;1.20;1.00;;;13.90;98.00;;;;;;5033094;28;20454;-68
2020/12/23 05:33:26;;;;;;;1.20;0.90;;;13.80;98.00;;;;;;5031050;28;20971;-67
2020/12/23 05:35:55;;;;;;;1.20;1.00;;;13.90;98.00;;;;;;5032835;28;20496;-68
2020/12/23 05:38:21;;;;;;;1.20;1.00;;;13.80;98.00;;;;;;5030754;28;20466;-69
2020/12/23 05:40:48;;;;;;;1.20;1.00;;;13.80;98.00;;;;;;5032583;28;20520;-67
2020/12/23 05:43:15;;;;;;;1.20;1.00;;;13.90;98.00;;;;;;5030309;28;20893;-68
2020/12/23 05:45:42;;;;;;;1.20;1.00;;;13.90;98.00;;;;;;5032750;28;20463;-69
2020/12/23 05:48:12;;;;;;;1.20;1.00;;;13.90;98.00;;;;;;5030783;28;20463;-67
2020/12/23 05:50:41;;;;;;;1.20;1.03;;;14.00;98.00;;;;;;5032348;28;20465;-68
2020/12/23 05:53:12;;;;;;;1.20;1.00;;;14.00;98.00;;;;;;5030537;28;20458;-68
2020/12/23 05:55:44;;;;;;;1.20;1.00;;;14.00;98.00;;;;;;5032265;28;20881;-68
2020/12/23 05:58:20;;;;;;;1.20;1.00;;;13.90;98.00;;;;;;5030403;28;20624;-68
2020/12/23 06:00:47;;;;;;;1.20;1.00;;;13.80;98.00;;;;;;5032357;28;20453;-68
2020/12/23 06:03:20;;;;;;;1.20;1.00;;;13.70;98.00;;;;;;5030330;28;20539;-67
2020/12/23 06:05:58;;;;;;;1.20;1.00;;;13.60;98.00;;;;;;5032128;28;20628;-68
2020/12/23 06:08:31;;;;;;;1.20;0.90;;;13.50;98.00;;;;;;5029846;28;20990;-68
2020/12/23 06:11:27;;;;;;;1.20;1.03;;;13.40;98.00;;;;;;5032179;28;20472;-68
2020/12/23 06:14:23;;;;;;;1.20;0.90;;;13.30;98.00;;;;;;5032237;28;20505;-68
2020/12/23 06:16:51;;;;;;;1.20;1.00;;;13.20;98.00;;;;;;5029925;28;20466;-68
2020/12/23 06:19:26;;;;;;;1.30;1.00;;;13.10;98.00;;;;;;5031878;28;20457;-69
2020/12/23 06:21:55;;;;;;;1.20;1.00;;;13.10;98.00;;;;;;5029828;28;20495;-68
2020/12/23 06:24:24;;;;;;;1.20;1.00;;;13.10;98.00;;;;;;5031814;28;20485;-69
2020/12/23 06:26:52;;;;;;;1.20;1.00;;;13.10;98.00;;;;;;5028643;28;20504;-69
2020/12/23 06:29:21;;;;;;;1.20;1.00;;;13.20;98.00;;;;;;5032199;28;20458;-68
2020/12/23 06:31:49;;;;;;;1.20;1.00;;;13.30;98.00;;;;;;5029968;28;20480;-68
2020/12/23 06:34:18;;;;;;;1.20;1.10;;;13.30;98.00;;;;;;5031770;28;20458;-68
2020/12/23 06:36:45;;;;;;;1.67;1.00;;;13.20;98.00;;;;;;5029826;28;20461;-68
2020/12/23 06:39:29;;;;;;;1.20;1.00;;;13.20;98.00;;;;;;5031895;28;20988;-69
2020/12/23 06:42:34;;;;;;;1.30;1.10;;;13.20;98.00;;;;;;5029628;28;20580;-68
2020/12/23 06:45:08;;;;;;;1.40;1.30;;;13.20;98.00;;;;;;5031713;28;20459;-69
2020/12/23 06:47:36;;;;;;;1.20;1.10;;;13.20;98.00;;;;;;5029600;28;20860;-68
2020/12/23 06:50:29;;;;;;;1.20;1.00;;;13.20;98.00;;;;;;5031605;28;20452;-68
2020/12/23 06:52:56;;;;;;;1.20;1.10;;;13.20;98.00;;;;;;5028901;28;20461;-68
2020/12/23 06:55:44;;;;;;;1.20;1.00;;;13.10;98.00;;;;;;5031552;28;20468;-68
2020/12/23 06:58:38;;;;;;;1.40;1.20;;;13.00;98.00;;;;;;5029538;28;20539;-68
2020/12/23 07:01:18;;;;;;;1.20;0.90;;;12.90;98.00;;;;;;5031398;28;20454;-68
2020/12/23 07:03:48;;;;;;;1.20;1.00;;;12.90;98.00;;;;;;5029045;28;20954;-68
2020/12/23 07:06:34;;;;;;;1.20;1.00;;;12.90;98.00;;;;;;5031329;28;20461;-68
2020/12/23 07:09:05;;;;;;;1.20;1.00;;;12.90;98.00;;;;;;5031280;28;20485;-68
2020/12/23 07:11:36;;;;;;;1.20;1.00;;;12.80;98.00;;;;;;5029168;28;21029;-68
2020/12/23 07:14:05;;;;;;;1.20;1.00;;;12.90;98.00;;;;;;5031345;28;20946;-68
2020/12/23 07:16:40;;;;;;;1.20;1.07;;;12.90;98.00;;;;;;5029159;28;20885;-68
2020/12/23 07:19:07;;;;;;;1.20;1.00;;;12.90;98.00;;;;;;5031107;28;20535;-68
2020/12/23 07:21:35;;;;;;;1.20;1.03;;;12.90;98.00;;;;;;5028885;28;20585;-68
2020/12/23 07:24:03;;;;;;;1.20;1.00;;;12.90;98.00;;;;;;5029780;28;20476;-68
2020/12/23 07:26:38;;;;;;;1.43;1.30;;;12.90;98.00;;;;;;5029743;28;20465;-68
2020/12/23 07:29:09;;;;;;;1.40;1.10;;;12.80;98.00;;;;;;5031185;28;20455;-69
2020/12/23 07:31:39;;;;;;;1.20;1.00;;;12.80;98.00;;;;;;5029119;28;20463;-68
2020/12/23 07:34:09;;;;;;;1.30;1.20;;;12.80;98.00;;;;;;5031133;28;20465;-68
2020/12/23 07:36:36;;;;;;;1.93;1.10;;;12.80;98.00;;;;;;5029091;28;20469;-68
2020/12/23 07:39:04;;;;;;;1.20;1.00;;;12.80;98.00;;;;;;5031174;28;20560;-67
2020/12/23 07:41:30;;;;;;;1.20;1.00;;;12.80;98.00;;;;;;5030520;28;20515;-68
2020/12/23 07:44:00;;;;;;;1.20;1.00;;;12.80;98.00;;;;;;5030765;28;20467;-69
2020/12/23 07:46:27;;;;;;;1.20;1.00;;;12.70;98.00;;;;;;5031243;28;20457;-68
2020/12/23 07:48:54;;;;;;;1.83;1.63;;;12.70;98.00;;;;;;5029136;28;20458;-68
2020/12/23 07:51:20;;;;;;;1.37;1.20;;;12.70;98.00;;;;;;5029841;28;20536;-69
2020/12/23 07:53:48;;;;;;;1.20;1.00;;;12.70;98.00;;;;;;5028652;28;20519;-69
2020/12/23 07:56:15;;;;;;;1.20;1.10;;;12.70;98.00;;;;;;5030969;28;20468;-69
2020/12/23 07:58:44;;;;;;;1.20;1.00;;;12.70;98.00;;;;;;5028653;28;20530;-68
2020/12/23 08:01:12;;;;;;;1.20;1.00;;;12.70;98.00;;;;;;5030803;28;20535;-68
2020/12/23 08:03:40;;;;;;;2.77;1.53;;;12.70;98.00;;;;;;5028617;28;20986;-70
2020/12/23 08:06:08;;;;;;;1.20;0.90;;;12.80;98.00;;;;;;5032561;28;20471;-69
2020/12/23 08:08:35;;;;;;;1.20;1.07;;;12.90;98.00;;;;;;5030976;28;20523;-68
2020/12/23 08:11:09;;;;;;;1.20;0.90;;;13.00;98.00;;;;;;5033965;28;20472;-68
2020/12/23 08:13:39;;;;;;;1.20;0.90;;;13.10;98.00;;;;;;5031507;28;20964;-67
2020/12/23 08:16:07;;;;;;;1.20;1.00;;;13.30;98.00;;;;;;5033957;28;20470;-68
2020/12/23 08:18:36;;;;;;;1.57;1.13;;;13.50;98.00;;;;;;5030336;28;20456;-69
2020/12/23 08:21:09;;;;;;;1.20;0.90;;;13.60;98.00;;;;;;5032621;28;20467;-69
2020/12/23 08:23:36;;;;;;;1.30;1.10;;;13.80;98.00;;;;;;5032116;28;20468;-68
2020/12/23 08:26:04;;;;;;;1.20;1.00;;;14.20;98.00;;;;;;5033912;28;20527;-67
2020/12/23 08:28:34;;;;;;;1.20;1.00;;;14.30;98.00;;;;;;5031947;28;20455;-67
2020/12/23 08:31:01;;;;;;;1.20;1.00;;;14.40;98.00;;;;;;5033877;28;20484;-68
2020/12/23 08:33:30;;;;;;;1.63;1.37;;;14.40;98.00;;;;;;5031931;28;20457;-68
2020/12/23 08:36:02;;;;;;;1.20;1.00;;;14.80;98.00;;;;;;5032579;28;20878;-66
2020/12/23 08:38:29;;;;;;;1.20;1.00;;;15.10;98.00;;;;;;5031330;28;20626;-67
2020/12/23 08:40:58;;;;;;;1.20;1.00;;;15.30;98.00;;;;;;5033207;28;20459;-67
2020/12/23 08:43:27;;;;;;;1.20;1.00;;;15.30;98.00;;;;;;5031379;28;20597;-67
2020/12/23 08:45:55;;;;;;;1.20;1.00;;;15.30;98.00;;;;;;5031930;28;20544;-68
2020/12/23 08:48:23;;;;;;;1.20;1.10;;;15.30;98.00;;;;;;5030631;28;20486;-67
2020/12/23 08:50:54;;;;;;;1.20;1.00;;;15.30;98.00;;;;;;5031440;28;20825;-68
2020/12/23 08:53:30;;;;;;;1.20;1.00;;;15.20;98.00;;;;;;5031123;28;20926;-67
2020/12/23 08:55:57;;;;;;;1.20;1.00;;;15.10;98.00;;;;;;5032918;28;20851;-68
2020/12/23 08:58:27;;;;;;;1.40;1.00;;;15.00;98.00;;;;;;5030777;28;20491;-68
2020/12/23 09:00:58;;;;;;;2.20;1.10;;;15.10;98.00;;;;;;5032654;28;20463;-69
2020/12/23 09:03:25;;;;;;;1.20;0.93;;;15.10;98.00;;;;;;5030506;28;20524;-66
2020/12/23 09:05:56;;;;;;;1.20;1.10;;;15.00;98.00;;;;;;5031452;28;20462;-68
2020/12/23 09:08:25;;;;;;;1.30;1.13;;;15.00;98.00;;;;;;5030504;28;20468;-66
2020/12/23 09:10:54;;;;;;;1.20;1.03;;;15.10;98.00;;;;;;5032371;28;20465;-66
2020/12/23 09:13:29;;;;;;;1.20;1.00;;;15.10;98.00;;;;;;5030522;28;20488;-67
2020/12/23 09:15:56;;;;;;;1.20;1.00;;;15.10;98.00;;;;;;5032040;28;20477;-67
2020/12/23 09:18:22;;;;;;;1.20;1.10;;;15.10;98.00;;;;;;5030555;28;20486;-66
2020/12/23 09:20:57;;;;;;;1.20;1.10;;;15.20;98.00;;;;;;5032223;28;20498;-70
2020/12/23 09:23:24;;;;;;;1.63;1.50;;;15.20;98.00;;;;;;5030114;28;20851;-67
2020/12/23 09:25:50;;;;;;;1.20;1.00;;;15.20;98.00;;;;;;5028310;28;20480;-66
2020/12/23 09:28:18;;;;;;;2.00;1.10;;;15.20;98.00;;;;;;5009783;28;20465;-67
2020/12/23 09:30:48;;;;;;;1.20;1.00;;;15.20;98.00;;;;;;5012202;28;20461;-67
2020/12/23 09:33:15;;;;;;;1.40;1.20;;;15.20;98.00;;;;;;5010325;28;20885;-66
2020/12/23 09:35:44;;;;;;;1.20;1.00;;;15.30;98.00;;;;;;5012516;28;20460;-68
2020/12/23 09:38:15;;;;;;;1.20;1.00;;;15.20;98.00;;;;;;5008893;28;20471;-67
2020/12/23 09:40:43;;;;;;;1.60;1.10;;;15.20;98.00;;;;;;5012081;28;20459;-67
2020/12/23 09:43:14;;;;;;;1.20;1.20;;;15.20;98.00;;;;;;5010517;28;20481;-67
2020/12/23 09:45:45;;;;;;;1.20;1.10;;;15.20;98.00;;;;;;5012452;28;20518;-67
2020/12/23 09:48:12;;;;;;;1.20;0.97;;;15.20;98.00;;;;;;5010493;28;20945;-66
2020/12/23 09:50:39;;;;;;;1.20;1.00;;;15.20;98.00;;;;;;5012339;28;20495;-67
2020/12/23 09:53:05;;;;;;;1.20;1.10;;;15.20;98.00;;;;;;5010390;28;20516;-67
2020/12/23 09:55:32;;;;;;;1.30;1.23;;;15.20;98.00;;;;;;5012402;28;20460;-68
2020/12/23 09:57:58;;;;;;;1.20;1.00;;;15.20;98.00;;;;;;5010006;28;20456;-67
2020/12/23 10:00:27;;;;;;;1.30;1.10;;;15.20;98.00;;;;;;5012268;28;20466;-68
2020/12/23 10:02:54;;;;;;;1.20;1.00;;;15.10;98.00;;;;;;5010161;28;20831;-67
2020/12/23 10:05:22;;;;;;;1.20;1.10;;;15.10;98.00;;;;;;5012490;28;20820;-67
2020/12/23 10:07:48;;;;;;;1.20;1.10;;;15.10;98.00;;;;;;5010112;28;20833;-69
2020/12/23 10:10:15;;;;;;;1.20;1.00;;;15.00;98.00;;;;;;5012035;28;21121;-68
2020/12/23 10:12:41;;;;;;;1.20;1.00;;;14.90;98.00;;;;;;5009736;28;20477;-67
2020/12/23 10:15:09;;;;;;;1.20;0.97;;;15.00;98.00;;;;;;5012049;28;20475;-68
2020/12/23 10:17:35;;;;;;;1.20;1.00;;;15.00;98.00;;;;;;5009886;28;20946;-67
2020/12/23 10:20:03;;;;;;;1.20;1.00;;;15.00;98.00;;;;;;5011849;28;20469;-69
2020/12/23 10:22:30;;;;;;;1.20;1.00;;;15.00;98.00;;;;;;5009386;28;20543;-68
2020/12/23 10:24:57;;;;;;;1.60;1.20;;;15.10;98.00;;;;;;5011661;28;20940;-66
2020/12/23 10:27:24;;;;;;;1.20;1.00;;;15.10;98.00;;;;;;5008925;28;20448;-66
2020/12/23 10:29:52;;;;;;;1.20;1.00;;;15.10;98.00;;;;;;5011361;28;20464;-67
2020/12/23 10:32:20;;;;;;;1.20;1.00;;;15.10;98.00;;;;;;5009623;28;20457;-67
2020/12/23 10:34:46;;;;;;;1.20;1.10;;;15.00;98.00;;;;;;5011352;28;20460;-66
2020/12/23 10:37:14;;;;;;;3.30;1.20;;;15.00;98.00;;;;;;5009423;28;20830;-67
2020/12/23 10:39:41;;;;;;;1.20;1.00;;;15.00;98.00;;;;;;5011006;28;20483;-68
2020/12/23 10:42:07;;;;;;;1.20;1.03;;;15.10;98.00;;;;;;5009280;28;20529;-66
2020/12/23 10:44:34;;;;;;;1.20;1.00;;;15.10;98.00;;;;;;5011386;28;20460;-65
2020/12/23 10:47:01;;;;;;;1.20;1.07;;;15.10;98.00;;;;;;5009257;28;20467;-65
2020/12/23 10:49:28;;;;;;;1.20;1.00;;;15.20;98.00;;;;;;5011079;28;20461;-67
2020/12/23 10:51:56;;;;;;;1.20;1.03;;;15.10;98.00;;;;;;5009013;28;20468;-66
2020/12/23 10:54:25;;;;;;;1.30;1.27;;;15.10;98.00;;;;;;5009930;28;20499;-67
2020/12/23 10:56:51;;;;;;;1.20;1.10;;;15.10;98.00;;;;;;5009481;28;20456;-68
2020/12/23 10:59:18;;;;;;;1.23;1.13;;;15.10;98.00;;;;;;5011142;28;20472;-68
2020/12/23 11:01:45;;;;;;;1.20;1.00;;;15.10;98.00;;;;;;5011025;28;20955;-67
2020/12/23 11:04:12;;;;;;;1.20;1.00;;;15.20;98.00;;;;;;5009099;28;20464;-67
2020/12/23 11:06:39;;;;;;;1.20;1.03;;;15.10;98.00;;;;;;5011146;28;20507;-67
2020/12/23 11:09:06;;;;;;;1.20;1.00;;;15.20;98.00;;;;;;5008938;28;20457;-67
2020/12/23 11:11:34;;;;;;;1.37;1.13;;;15.20;98.00;;;;;;5011262;28;20467;-68
2020/12/23 11:14:01;;;;;;;1.20;1.20;;;15.10;98.00;;;;;;5007653;28;20466;-67
2020/12/23 11:16:36;;;;;;;1.30;1.20;;;15.10;98.00;;;;;;5011406;28;20464;-68
2020/12/23 11:19:03;;;;;;;1.20;1.00;;;15.10;98.00;;;;;;5009029;28;20487;-68
2020/12/23 11:21:32;;;;;;;1.40;1.20;;;15.10;98.00;;;;;;5010971;28;20519;-69
2020/12/23 11:23:59;;;;;;;1.20;1.00;;;15.10;98.00;;;;;;5008635;28;20489;-68
2020/12/23 11:26:25;;;;;;;2.70;1.33;;;15.10;98.00;;;;;;5011209;28;20464;-70
2020/12/23 11:28:53;;;;;;;1.20;1.00;;;15.10;98.00;;;;;;5007795;28;20468;-67
2020/12/23 11:31:20;;;;;;;1.20;1.00;;;15.10;98.00;;;;;;5010897;28;20471;-69
2020/12/23 11:33:46;;;;;;;1.20;1.00;;;15.10;98.00;;;;;;5009089;28;20468;-66
2020/12/23 11:36:14;;;;;;;1.30;1.07;;;15.10;98.00;;;;;;5010994;28;20564;-68
2020/12/23 11:38:42;;;;;;;1.20;1.07;;;15.10;98.00;;;;;;5010401;28;20996;-66
2020/12/23 11:41:09;;;;;;;1.30;1.10;;;15.10;98.00;;;;;;5014995;28;20466;-67
2020/12/23 11:43:36;;;;;;;1.60;1.20;;;15.00;98.00;;;;;;5012740;28;20509;-67
2020/12/23 11:46:03;;;;;;;1.20;1.00;;;15.00;98.00;;;;;;5014879;28;20805;-67
2020/12/23 11:48:30;;;;;;;1.20;1.00;;;14.90;98.00;;;;;;5012652;28;20974;-67
2020/12/23 11:50:57;;;;;;;1.20;1.00;;;14.90;98.00;;;;;;5014313;28;20465;-67
2020/12/23 11:53:23;;;;;;;1.20;1.10;;;14.80;98.00;;;;;;5012565;28;20469;-68
2020/12/23 11:55:50;;;;;;;1.30;1.20;;;14.60;98.00;;;;;;5014480;28;20459;-69
2020/12/23 11:58:16;;;;;;;1.20;1.10;;;14.60;98.00;;;;;;5012443;28;20457;-68
2020/12/23 12:00:43;;;;;;;1.20;1.10;;;14.50;98.00;;;;;;5014223;28;20508;-67
2020/12/23 12:03:11;;;;;;;1.87;1.20;;;14.50;98.00;;;;;;5012192;28;20490;-68
2020/12/23 12:05:37;;;;;;;2.30;1.67;;;14.40;98.00;;;;;;5014542;28;20472;-68
2020/12/23 12:08:07;;;;;;;1.30;1.20;;;14.40;98.00;;;;;;5012396;28;20479;-69
2020/12/23 12:10:33;;;;;;;1.53;1.20;;;14.30;98.00;;;;;;5013881;28;20489;-69
2020/12/23 12:13:00;;;;;;;1.60;1.30;;;14.30;98.00;;;;;;5012134;28;20461;-70
2020/12/23 12:15:28;;;;;;;1.40;1.20;;;14.30;98.00;;;;;;5014130;28;20467;-69
2020/12/23 12:17:55;;;;;;;1.20;1.10;;;14.10;98.00;;;;;;5012234;28;20471;-68
2020/12/23 12:20:22;;;;;;;1.20;1.00;;;14.10;98.00;;;;;;5013861;28;20470;-69
2020/12/23 12:22:49;;;;;;;1.20;1.03;;;14.00;98.00;;;;;;5010523;28;20499;-68
2020/12/23 12:25:16;;;;;;;1.53;1.47;;;14.00;98.00;;;;;;5013996;28;20519;-69
2020/12/23 12:27:43;;;;;;;1.30;1.20;;;14.00;98.00;;;;;;5011873;28;20461;-69
2020/12/23 12:30:15;;;;;;;1.30;1.00;;;13.90;98.00;;;;;;5013922;28;20520;-69
2020/12/23 12:32:42;;;;;;;3.00;1.30;;;13.90;98.00;;;;;;5011801;28;20535;-68
2020/12/23 12:35:09;;;;;;;2.03;1.50;;;13.90;98.00;;;;;;5014158;28;20462;-68
2020/12/23 12:37:36;;;;;;;1.20;1.00;;;13.80;98.00;;;;;;5012104;28;20465;-69
2020/12/23 12:40:03;;;;;;;2.90;2.37;;;13.90;98.00;;;;;;5013672;28;20466;-70
2020/12/23 12:42:30;;;;;;;1.37;1.37;;;13.90;98.00;;;;;;5011997;28;20555;-68
2020/12/23 12:44:56;;;;;;;1.40;1.40;;;13.90;98.00;;;;;;5013712;28;20961;-69
2020/12/23 12:47:23;;;;;;;1.53;1.10;;;13.90;98.00;;;;;;5011845;28;20460;-68
2020/12/23 12:49:50;;;;;;;1.60;1.20;;;13.90;98.00;;;;;;5012618;28;20466;-69
2020/12/23 12:52:16;;;;;;;1.20;1.10;;;13.80;98.00;;;;;;5011346;28;20465;-69
2020/12/23 12:54:44;;;;;;;2.30;1.77;;;13.80;98.00;;;;;;5013554;28;20460;-69